sensor_id;sensor_type;location;lat;lon;timestamp;P1;durP1;ratioP1;P2;durP2;ratioP2
14143;SDS011;7152;48.348;10.980;2023-05-18T00:01:07;8.97;;;6.97;;
14143;SDS011;7152;48.348;10.980;2023-05-18T00:03:34;10.00;;;6.33;;
14143;SDS011;7152;48.348;10.980;2023-05-18T00:06:00;7.90;;;5.87;;
14143;SDS011;7152;48.348;10.980;2023-05-18T00:08:31;10.07;;;5.67;;
14143;SDS011;7152;48.348;10.980;2023-05-18T00:10:57;8.10;;;5.70;;
14143;SDS011;7152;48.348;10.980;2023-05-18T00:13:22;8.33;;;5.77;;
14143;SDS011;7152;48.348;10.980;2023-05-18T00:15:48;8.53;;;6.50;;
14143;SDS011;7152;48.348;10.980;2023-05-18T00:18:14;10.23;;;6.87;;
14143;SDS011;7152;48.348;10.980;2023-05-18T00:20:39;7.23;;;5.97;;
14143;SDS011;7152;48.348;10.980;2023-05-18T00:23:06;9.63;;;6.20;;
14143;SDS011;7152;48.348;10.980;2023-05-18T00:25:40;7.00;;;6.30;;
14143;SDS011;7152;48.348;10.980;2023-05-18T00:28:06;10.57;;;6.73;;
14143;SDS011;7152;48.348;10.980;2023-05-18T00:30:32;10.47;;;6.53;;
14143;SDS011;7152;48.348;10.980;2023-05-18T00:32:57;9.80;;;6.97;;
14143;SDS011;7152;48.348;10.980;2023-05-18T00:35:23;7.50;;;6.70;;
14143;SDS011;7152;48.348;10.980;2023-05-18T00:37:49;9.27;;;6.73;;
14143;SDS011;7152;48.348;10.980;2023-05-18T00:40:14;8.37;;;7.53;;
14143;SDS011;7152;48.348;10.980;2023-05-18T00:42:40;9.67;;;7.53;;
14143;SDS011;7152;48.348;10.980;2023-05-18T00:45:06;11.40;;;7.63;;
14143;SDS011;7152;48.348;10.980;2023-05-18T00:47:32;8.13;;;7.23;;
14143;SDS011;7152;48.348;10.980;2023-05-18T00:49:58;10.23;;;7.53;;
14143;SDS011;7152;48.348;10.980;2023-05-18T00:52:23;10.33;;;7.60;;
14143;SDS011;7152;48.348;10.980;2023-05-18T00:54:51;9.20;;;7.37;;
14143;SDS011;7152;48.348;10.980;2023-05-18T00:57:17;9.53;;;7.97;;
14143;SDS011;7152;48.348;10.980;2023-05-18T00:59:44;12.97;;;7.43;;
14143;SDS011;7152;48.348;10.980;2023-05-18T01:02:11;11.90;;;7.97;;
14143;SDS011;7152;48.348;10.980;2023-05-18T01:04:38;9.80;;;7.73;;
14143;SDS011;7152;48.348;10.980;2023-05-18T01:07:05;9.73;;;7.53;;
14143;SDS011;7152;48.348;10.980;2023-05-18T01:09:31;13.13;;;7.77;;
14143;SDS011;7152;48.348;10.980;2023-05-18T01:14:38;10.47;;;7.13;;
14143;SDS011;7152;48.348;10.980;2023-05-18T01:27:46;11.07;;;7.77;;
14143;SDS011;7152;48.348;10.980;2023-05-18T01:30:17;7.97;;;6.40;;
14143;SDS011;7152;48.348;10.980;2023-05-18T01:32:44;8.87;;;7.60;;
14143;SDS011;7152;48.348;10.980;2023-05-18T01:35:11;8.30;;;7.23;;
14143;SDS011;7152;48.348;10.980;2023-05-18T01:37:36;11.83;;;7.90;;
14143;SDS011;7152;48.348;10.980;2023-05-18T01:40:02;9.70;;;6.50;;
14143;SDS011;7152;48.348;10.980;2023-05-18T01:42:30;8.87;;;6.63;;
14143;SDS011;7152;48.348;10.980;2023-05-18T01:45:02;11.63;;;6.83;;
14143;SDS011;7152;48.348;10.980;2023-05-18T01:47:33;11.83;;;7.10;;
14143;SDS011;7152;48.348;10.980;2023-05-18T01:50:03;12.40;;;7.13;;
14143;SDS011;7152;48.348;10.980;2023-05-18T01:52:44;10.87;;;6.77;;
14143;SDS011;7152;48.348;10.980;2023-05-18T01:55:21;10.97;;;6.77;;
14143;SDS011;7152;48.348;10.980;2023-05-18T01:57:50;8.53;;;6.13;;
14143;SDS011;7152;48.348;10.980;2023-05-18T02:00:18;10.53;;;6.57;;
14143;SDS011;7152;48.348;10.980;2023-05-18T02:02:44;9.10;;;6.60;;
14143;SDS011;7152;48.348;10.980;2023-05-18T02:05:10;10.03;;;6.63;;
14143;SDS011;7152;48.348;10.980;2023-05-18T02:07:39;10.83;;;6.70;;
14143;SDS011;7152;48.348;10.980;2023-05-18T02:10:08;12.97;;;6.57;;
14143;SDS011;7152;48.348;10.980;2023-05-18T02:12:33;10.17;;;6.50;;
14143;SDS011;7152;48.348;10.980;2023-05-18T02:14:59;8.10;;;6.27;;
14143;SDS011;7152;48.348;10.980;2023-05-18T02:17:29;11.73;;;7.70;;
14143;SDS011;7152;48.348;10.980;2023-05-18T02:19:59;10.23;;;7.13;;
14143;SDS011;7152;48.348;10.980;2023-05-18T02:22:25;8.07;;;6.87;;
14143;SDS011;7152;48.348;10.980;2023-05-18T02:24:51;8.23;;;6.73;;
14143;SDS011;7152;48.348;10.980;2023-05-18T02:27:17;8.77;;;6.57;;
14143;SDS011;7152;48.348;10.980;2023-05-18T02:29:43;11.53;;;6.83;;
14143;SDS011;7152;48.348;10.980;2023-05-18T02:32:09;11.87;;;6.70;;
14143;SDS011;7152;48.348;10.980;2023-05-18T02:34:34;11.10;;;7.47;;
14143;SDS011;7152;48.348;10.980;2023-05-18T02:37:02;10.33;;;6.77;;
14143;SDS011;7152;48.348;10.980;2023-05-18T02:39:28;8.37;;;6.67;;
14143;SDS011;7152;48.348;10.980;2023-05-18T02:41:54;9.20;;;6.13;;
14143;SDS011;7152;48.348;10.980;2023-05-18T02:44:20;11.53;;;7.23;;
14143;SDS011;7152;48.348;10.980;2023-05-18T02:46:45;12.57;;;7.50;;
14143;SDS011;7152;48.348;10.980;2023-05-18T02:49:11;11.83;;;6.80;;
14143;SDS011;7152;48.348;10.980;2023-05-18T02:51:37;10.87;;;6.67;;
14143;SDS011;7152;48.348;10.980;2023-05-18T02:54:02;11.03;;;6.87;;
14143;SDS011;7152;48.348;10.980;2023-05-18T02:56:28;9.23;;;7.20;;
14143;SDS011;7152;48.348;10.980;2023-05-18T02:58:54;12.20;;;6.90;;
14143;SDS011;7152;48.348;10.980;2023-05-18T03:01:22;12.43;;;7.43;;
14143;SDS011;7152;48.348;10.980;2023-05-18T03:03:51;9.43;;;7.73;;
14143;SDS011;7152;48.348;10.980;2023-05-18T03:06:17;11.00;;;7.10;;
14143;SDS011;7152;48.348;10.980;2023-05-18T03:08:48;10.03;;;7.23;;
14143;SDS011;7152;48.348;10.980;2023-05-18T03:11:14;9.57;;;6.67;;
14143;SDS011;7152;48.348;10.980;2023-05-18T03:13:40;10.70;;;6.83;;
14143;SDS011;7152;48.348;10.980;2023-05-18T03:16:07;11.53;;;7.17;;
14143;SDS011;7152;48.348;10.980;2023-05-18T03:18:33;10.73;;;8.03;;
14143;SDS011;7152;48.348;10.980;2023-05-18T03:20:58;10.40;;;7.47;;
14143;SDS011;7152;48.348;10.980;2023-05-18T03:23:26;10.87;;;7.47;;
14143;SDS011;7152;48.348;10.980;2023-05-18T03:25:52;11.33;;;7.27;;
14143;SDS011;7152;48.348;10.980;2023-05-18T03:28:19;11.77;;;7.70;;
14143;SDS011;7152;48.348;10.980;2023-05-18T03:30:45;10.10;;;7.37;;
14143;SDS011;7152;48.348;10.980;2023-05-18T03:33:11;13.50;;;7.80;;
14143;SDS011;7152;48.348;10.980;2023-05-18T03:35:37;11.93;;;7.87;;
14143;SDS011;7152;48.348;10.980;2023-05-18T03:38:04;11.23;;;7.27;;
14143;SDS011;7152;48.348;10.980;2023-05-18T03:40:30;9.57;;;6.73;;
14143;SDS011;7152;48.348;10.980;2023-05-18T03:42:56;9.17;;;7.43;;
14143;SDS011;7152;48.348;10.980;2023-05-18T03:45:21;10.93;;;7.40;;
14143;SDS011;7152;48.348;10.980;2023-05-18T03:47:47;10.53;;;7.17;;
14143;SDS011;7152;48.348;10.980;2023-05-18T03:50:13;8.93;;;6.97;;
14143;SDS011;7152;48.348;10.980;2023-05-18T03:52:39;9.47;;;7.10;;
14143;SDS011;7152;48.348;10.980;2023-05-18T03:55:05;12.33;;;8.07;;
14143;SDS011;7152;48.348;10.980;2023-05-18T03:57:31;15.30;;;8.43;;
14143;SDS011;7152;48.348;10.980;2023-05-18T03:59:57;10.63;;;7.47;;
14143;SDS011;7152;48.348;10.980;2023-05-18T04:02:23;10.50;;;8.17;;
14143;SDS011;7152;48.348;10.980;2023-05-18T04:04:49;15.87;;;7.73;;
14143;SDS011;7152;48.348;10.980;2023-05-18T04:07:18;14.03;;;8.27;;
14143;SDS011;7152;48.348;10.980;2023-05-18T04:09:46;14.97;;;8.27;;
14143;SDS011;7152;48.348;10.980;2023-05-18T04:12:13;10.00;;;7.53;;
14143;SDS011;7152;48.348;10.980;2023-05-18T04:14:39;9.73;;;8.00;;
14143;SDS011;7152;48.348;10.980;2023-05-18T04:17:07;11.53;;;8.20;;
14143;SDS011;7152;48.348;10.980;2023-05-18T04:19:34;10.30;;;7.33;;
14143;SDS011;7152;48.348;10.980;2023-05-18T04:22:01;8.37;;;7.33;;
14143;SDS011;7152;48.348;10.980;2023-05-18T04:24:29;17.27;;;8.00;;
14143;SDS011;7152;48.348;10.980;2023-05-18T04:26:58;11.53;;;7.60;;
14143;SDS011;7152;48.348;10.980;2023-05-18T04:29:27;12.63;;;7.63;;
14143;SDS011;7152;48.348;10.980;2023-05-18T04:31:54;11.23;;;8.00;;
14143;SDS011;7152;48.348;10.980;2023-05-18T04:34:26;12.37;;;7.47;;
14143;SDS011;7152;48.348;10.980;2023-05-18T04:36:52;10.20;;;7.60;;
14143;SDS011;7152;48.348;10.980;2023-05-18T04:39:22;11.43;;;8.20;;
14143;SDS011;7152;48.348;10.980;2023-05-18T04:41:49;9.77;;;7.33;;
14143;SDS011;7152;48.348;10.980;2023-05-18T04:44:21;10.67;;;7.50;;
14143;SDS011;7152;48.348;10.980;2023-05-18T04:46:58;11.27;;;7.70;;
14143;SDS011;7152;48.348;10.980;2023-05-18T04:49:24;9.30;;;7.37;;
14143;SDS011;7152;48.348;10.980;2023-05-18T04:51:52;11.80;;;7.73;;
14143;SDS011;7152;48.348;10.980;2023-05-18T04:54:25;9.83;;;8.20;;
14143;SDS011;7152;48.348;10.980;2023-05-18T04:56:55;11.13;;;7.77;;
14143;SDS011;7152;48.348;10.980;2023-05-18T04:59:21;10.73;;;7.30;;
14143;SDS011;7152;48.348;10.980;2023-05-18T05:01:50;10.47;;;7.60;;
14143;SDS011;7152;48.348;10.980;2023-05-18T05:04:17;10.70;;;7.77;;
14143;SDS011;7152;48.348;10.980;2023-05-18T05:06:43;9.63;;;7.23;;
14143;SDS011;7152;48.348;10.980;2023-05-18T05:09:09;8.43;;;7.10;;
14143;SDS011;7152;48.348;10.980;2023-05-18T05:11:37;9.60;;;7.60;;
14143;SDS011;7152;48.348;10.980;2023-05-18T05:14:03;8.63;;;7.37;;
14143;SDS011;7152;48.348;10.980;2023-05-18T05:16:29;10.13;;;7.30;;
14143;SDS011;7152;48.348;10.980;2023-05-18T05:18:54;10.07;;;7.53;;
14143;SDS011;7152;48.348;10.980;2023-05-18T05:21:20;11.63;;;7.47;;
14143;SDS011;7152;48.348;10.980;2023-05-18T05:23:46;11.73;;;7.87;;
14143;SDS011;7152;48.348;10.980;2023-05-18T05:26:12;8.07;;;6.73;;
14143;SDS011;7152;48.348;10.980;2023-05-18T05:28:37;10.13;;;7.80;;
14143;SDS011;7152;48.348;10.980;2023-05-18T05:31:03;9.13;;;8.07;;
14143;SDS011;7152;48.348;10.980;2023-05-18T05:33:29;11.43;;;8.20;;
14143;SDS011;7152;48.348;10.980;2023-05-18T05:35:54;12.07;;;8.53;;
14143;SDS011;7152;48.348;10.980;2023-05-18T05:38:20;11.10;;;7.77;;
14143;SDS011;7152;48.348;10.980;2023-05-18T05:40:45;9.47;;;7.40;;
14143;SDS011;7152;48.348;10.980;2023-05-18T05:43:11;10.10;;;7.60;;
14143;SDS011;7152;48.348;10.980;2023-05-18T05:45:37;11.67;;;7.83;;
14143;SDS011;7152;48.348;10.980;2023-05-18T05:48:03;9.27;;;7.23;;
14143;SDS011;7152;48.348;10.980;2023-05-18T05:50:30;12.17;;;8.93;;
14143;SDS011;7152;48.348;10.980;2023-05-18T05:52:56;10.00;;;8.13;;
14143;SDS011;7152;48.348;10.980;2023-05-18T05:55:22;12.53;;;8.43;;
14143;SDS011;7152;48.348;10.980;2023-05-18T05:57:47;12.97;;;7.10;;
14143;SDS011;7152;48.348;10.980;2023-05-18T06:00:13;8.47;;;7.47;;
14143;SDS011;7152;48.348;10.980;2023-05-18T06:02:39;11.10;;;7.73;;
14143;SDS011;7152;48.348;10.980;2023-05-18T06:05:05;11.30;;;7.57;;
14143;SDS011;7152;48.348;10.980;2023-05-18T06:07:32;11.50;;;6.90;;
14143;SDS011;7152;48.348;10.980;2023-05-18T06:09:58;8.47;;;7.10;;
14143;SDS011;7152;48.348;10.980;2023-05-18T06:12:24;8.17;;;7.20;;
14143;SDS011;7152;48.348;10.980;2023-05-18T06:14:49;8.00;;;7.20;;
14143;SDS011;7152;48.348;10.980;2023-05-18T06:17:21;9.47;;;6.90;;
14143;SDS011;7152;48.348;10.980;2023-05-18T06:19:48;9.53;;;6.47;;
14143;SDS011;7152;48.348;10.980;2023-05-18T06:22:13;7.70;;;6.43;;
14143;SDS011;7152;48.348;10.980;2023-05-18T06:24:39;8.40;;;6.77;;
14143;SDS011;7152;48.348;10.980;2023-05-18T06:27:04;7.17;;;6.47;;
14143;SDS011;7152;48.348;10.980;2023-05-18T06:29:30;8.00;;;5.70;;
14143;SDS011;7152;48.348;10.980;2023-05-18T06:31:56;7.27;;;6.20;;
14143;SDS011;7152;48.348;10.980;2023-05-18T06:34:22;6.53;;;4.93;;
14143;SDS011;7152;48.348;10.980;2023-05-18T06:36:47;6.37;;;5.70;;
14143;SDS011;7152;48.348;10.980;2023-05-18T06:39:13;8.33;;;5.60;;
14143;SDS011;7152;48.348;10.980;2023-05-18T06:41:38;6.90;;;5.67;;
14143;SDS011;7152;48.348;10.980;2023-05-18T06:44:04;6.20;;;5.37;;
14143;SDS011;7152;48.348;10.980;2023-05-18T06:46:30;6.13;;;4.67;;
14143;SDS011;7152;48.348;10.980;2023-05-18T06:48:55;7.30;;;4.83;;
14143;SDS011;7152;48.348;10.980;2023-05-18T06:51:21;6.43;;;4.80;;
14143;SDS011;7152;48.348;10.980;2023-05-18T06:53:47;7.53;;;5.70;;
14143;SDS011;7152;48.348;10.980;2023-05-18T06:56:14;7.40;;;5.33;;
14143;SDS011;7152;48.348;10.980;2023-05-18T06:58:40;8.73;;;5.40;;
14143;SDS011;7152;48.348;10.980;2023-05-18T07:01:07;5.60;;;4.60;;
14143;SDS011;7152;48.348;10.980;2023-05-18T07:03:33;7.53;;;6.20;;
14143;SDS011;7152;48.348;10.980;2023-05-18T07:05:59;9.37;;;5.50;;
14143;SDS011;7152;48.348;10.980;2023-05-18T07:08:25;5.90;;;4.67;;
14143;SDS011;7152;48.348;10.980;2023-05-18T07:10:51;7.27;;;5.87;;
14143;SDS011;7152;48.348;10.980;2023-05-18T07:13:17;6.73;;;4.57;;
14143;SDS011;7152;48.348;10.980;2023-05-18T07:15:43;7.10;;;4.57;;
14143;SDS011;7152;48.348;10.980;2023-05-18T07:18:09;7.87;;;5.67;;
14143;SDS011;7152;48.348;10.980;2023-05-18T07:20:35;6.10;;;4.50;;
14143;SDS011;7152;48.348;10.980;2023-05-18T07:23:00;9.03;;;4.67;;
14143;SDS011;7152;48.348;10.980;2023-05-18T07:25:26;5.77;;;5.07;;
14143;SDS011;7152;48.348;10.980;2023-05-18T07:27:52;5.53;;;4.60;;
14143;SDS011;7152;48.348;10.980;2023-05-18T07:30:18;6.47;;;5.03;;
14143;SDS011;7152;48.348;10.980;2023-05-18T07:32:45;8.30;;;5.20;;
14143;SDS011;7152;48.348;10.980;2023-05-18T07:35:10;6.10;;;4.20;;
14143;SDS011;7152;48.348;10.980;2023-05-18T07:37:36;7.43;;;4.10;;
14143;SDS011;7152;48.348;10.980;2023-05-18T07:40:02;8.40;;;4.27;;
14143;SDS011;7152;48.348;10.980;2023-05-18T07:42:29;7.47;;;4.23;;
14143;SDS011;7152;48.348;10.980;2023-05-18T07:44:55;9.87;;;4.57;;
14143;SDS011;7152;48.348;10.980;2023-05-18T07:47:20;7.93;;;3.50;;
14143;SDS011;7152;48.348;10.980;2023-05-18T07:49:47;6.43;;;3.63;;
14143;SDS011;7152;48.348;10.980;2023-05-18T07:52:13;7.27;;;4.03;;
14143;SDS011;7152;48.348;10.980;2023-05-18T07:54:39;7.67;;;3.77;;
14143;SDS011;7152;48.348;10.980;2023-05-18T07:57:04;6.07;;;3.90;;
14143;SDS011;7152;48.348;10.980;2023-05-18T07:59:30;6.53;;;4.23;;
14143;SDS011;7152;48.348;10.980;2023-05-18T08:01:56;5.67;;;3.37;;
14143;SDS011;7152;48.348;10.980;2023-05-18T08:04:23;8.37;;;4.27;;
14143;SDS011;7152;48.348;10.980;2023-05-18T08:06:48;5.77;;;3.57;;
14143;SDS011;7152;48.348;10.980;2023-05-18T08:09:14;5.87;;;3.87;;
14143;SDS011;7152;48.348;10.980;2023-05-18T08:11:41;5.67;;;3.80;;
14143;SDS011;7152;48.348;10.980;2023-05-18T08:14:07;6.63;;;3.57;;
14143;SDS011;7152;48.348;10.980;2023-05-18T08:16:32;6.83;;;3.43;;
14143;SDS011;7152;48.348;10.980;2023-05-18T08:19:01;5.57;;;3.73;;
14143;SDS011;7152;48.348;10.980;2023-05-18T08:21:27;6.20;;;3.40;;
14143;SDS011;7152;48.348;10.980;2023-05-18T08:23:54;8.77;;;3.70;;
14143;SDS011;7152;48.348;10.980;2023-05-18T08:26:20;9.83;;;3.83;;
14143;SDS011;7152;48.348;10.980;2023-05-18T08:28:46;5.60;;;3.70;;
14143;SDS011;7152;48.348;10.980;2023-05-18T08:31:13;6.80;;;3.43;;
14143;SDS011;7152;48.348;10.980;2023-05-18T08:33:39;5.93;;;3.57;;
14143;SDS011;7152;48.348;10.980;2023-05-18T08:36:06;5.50;;;3.67;;
14143;SDS011;7152;48.348;10.980;2023-05-18T08:38:32;7.70;;;3.90;;
14143;SDS011;7152;48.348;10.980;2023-05-18T08:46:45;7.80;;;3.20;;
14143;SDS011;7152;48.348;10.980;2023-05-18T08:49:18;6.77;;;3.60;;
14143;SDS011;7152;48.348;10.980;2023-05-18T08:51:46;7.47;;;3.30;;
14143;SDS011;7152;48.348;10.980;2023-05-18T08:54:21;5.90;;;3.00;;
14143;SDS011;7152;48.348;10.980;2023-05-18T08:56:47;6.63;;;3.13;;
14143;SDS011;7152;48.348;10.980;2023-05-18T08:59:15;4.97;;;3.20;;
14143;SDS011;7152;48.348;10.980;2023-05-18T09:01:43;6.77;;;2.80;;
14143;SDS011;7152;48.348;10.980;2023-05-18T09:04:09;6.03;;;3.20;;
14143;SDS011;7152;48.348;10.980;2023-05-18T09:06:35;8.80;;;3.53;;
14143;SDS011;7152;48.348;10.980;2023-05-18T09:09:01;6.07;;;3.00;;
14143;SDS011;7152;48.348;10.980;2023-05-18T09:11:31;6.83;;;3.03;;
14143;SDS011;7152;48.348;10.980;2023-05-18T09:13:58;6.40;;;3.33;;
14143;SDS011;7152;48.348;10.980;2023-05-18T09:16:24;5.87;;;2.93;;
14143;SDS011;7152;48.348;10.980;2023-05-18T09:18:51;5.17;;;3.00;;
14143;SDS011;7152;48.348;10.980;2023-05-18T09:21:17;3.83;;;3.03;;
14143;SDS011;7152;48.348;10.980;2023-05-18T09:23:43;7.93;;;3.57;;
14143;SDS011;7152;48.348;10.980;2023-05-18T09:26:09;6.60;;;3.20;;
14143;SDS011;7152;48.348;10.980;2023-05-18T09:28:41;6.27;;;2.80;;
14143;SDS011;7152;48.348;10.980;2023-05-18T09:31:08;5.20;;;2.53;;
14143;SDS011;7152;48.348;10.980;2023-05-18T09:33:41;5.77;;;2.60;;
14143;SDS011;7152;48.348;10.980;2023-05-18T09:36:08;4.50;;;2.67;;
14143;SDS011;7152;48.348;10.980;2023-05-18T09:38:36;7.17;;;3.20;;
14143;SDS011;7152;48.348;10.980;2023-05-18T09:41:03;6.23;;;2.90;;
14143;SDS011;7152;48.348;10.980;2023-05-18T09:43:34;5.83;;;3.03;;
14143;SDS011;7152;48.348;10.980;2023-05-18T09:46:00;5.67;;;3.27;;
14143;SDS011;7152;48.348;10.980;2023-05-18T09:48:31;4.70;;;2.90;;
14143;SDS011;7152;48.348;10.980;2023-05-18T09:51:00;6.70;;;3.30;;
14143;SDS011;7152;48.348;10.980;2023-05-18T09:53:26;5.00;;;3.03;;
14143;SDS011;7152;48.348;10.980;2023-05-18T09:55:51;4.43;;;3.23;;
14143;SDS011;7152;48.348;10.980;2023-05-18T09:58:17;6.50;;;3.17;;
14143;SDS011;7152;48.348;10.980;2023-05-18T10:00:43;6.00;;;2.67;;
14143;SDS011;7152;48.348;10.980;2023-05-18T10:05:45;5.27;;;3.27;;
14143;SDS011;7152;48.348;10.980;2023-05-18T10:08:12;5.83;;;3.10;;
14143;SDS011;7152;48.348;10.980;2023-05-18T10:10:39;5.27;;;3.30;;
14143;SDS011;7152;48.348;10.980;2023-05-18T10:13:12;5.97;;;3.40;;
14143;SDS011;7152;48.348;10.980;2023-05-18T10:15:45;5.30;;;3.50;;
14143;SDS011;7152;48.348;10.980;2023-05-18T10:18:21;5.33;;;3.60;;
14143;SDS011;7152;48.348;10.980;2023-05-18T10:20:48;7.80;;;3.50;;
14143;SDS011;7152;48.348;10.980;2023-05-18T10:23:16;6.40;;;3.20;;
14143;SDS011;7152;48.348;10.980;2023-05-18T10:25:44;5.63;;;3.13;;
14143;SDS011;7152;48.348;10.980;2023-05-18T10:28:11;7.77;;;3.40;;
14143;SDS011;7152;48.348;10.980;2023-05-18T10:30:44;5.53;;;3.00;;
14143;SDS011;7152;48.348;10.980;2023-05-18T10:33:10;6.50;;;3.33;;
14143;SDS011;7152;48.348;10.980;2023-05-18T10:35:37;4.60;;;2.73;;
14143;SDS011;7152;48.348;10.980;2023-05-18T10:38:04;5.30;;;3.00;;
14143;SDS011;7152;48.348;10.980;2023-05-18T10:40:31;7.50;;;2.63;;
14143;SDS011;7152;48.348;10.980;2023-05-18T10:42:58;4.93;;;2.30;;
14143;SDS011;7152;48.348;10.980;2023-05-18T10:45:27;5.00;;;2.57;;
14143;SDS011;7152;48.348;10.980;2023-05-18T10:47:57;5.80;;;2.70;;
14143;SDS011;7152;48.348;10.980;2023-05-18T10:50:24;5.60;;;2.73;;
14143;SDS011;7152;48.348;10.980;2023-05-18T10:52:50;5.17;;;2.63;;
14143;SDS011;7152;48.348;10.980;2023-05-18T10:55:17;3.97;;;2.63;;
14143;SDS011;7152;48.348;10.980;2023-05-18T10:57:45;4.57;;;2.87;;
14143;SDS011;7152;48.348;10.980;2023-05-18T11:00:15;5.37;;;2.63;;
14143;SDS011;7152;48.348;10.980;2023-05-18T11:02:41;7.53;;;2.90;;
14143;SDS011;7152;48.348;10.980;2023-05-18T11:05:08;6.53;;;3.00;;
14143;SDS011;7152;48.348;10.980;2023-05-18T11:07:34;7.40;;;3.00;;
14143;SDS011;7152;48.348;10.980;2023-05-18T11:10:01;4.37;;;2.50;;
14143;SDS011;7152;48.348;10.980;2023-05-18T11:12:32;6.17;;;2.90;;
14143;SDS011;7152;48.348;10.980;2023-05-18T11:15:02;6.23;;;2.47;;
14143;SDS011;7152;48.348;10.980;2023-05-18T11:17:29;5.53;;;2.63;;
14143;SDS011;7152;48.348;10.980;2023-05-18T11:22:49;5.43;;;2.87;;
14143;SDS011;7152;48.348;10.980;2023-05-18T11:25:35;6.40;;;2.67;;
14143;SDS011;7152;48.348;10.980;2023-05-18T11:28:03;5.30;;;2.87;;
14143;SDS011;7152;48.348;10.980;2023-05-18T11:30:43;7.37;;;3.07;;
14143;SDS011;7152;48.348;10.980;2023-05-18T11:33:11;5.53;;;2.60;;
14143;SDS011;7152;48.348;10.980;2023-05-18T11:35:59;5.53;;;3.07;;
14143;SDS011;7152;48.348;10.980;2023-05-18T11:46:59;5.50;;;2.90;;
14143;SDS011;7152;48.348;10.980;2023-05-18T11:52:04;4.33;;;2.33;;
14143;SDS011;7152;48.348;10.980;2023-05-18T11:54:38;4.73;;;2.67;;
14143;SDS011;7152;48.348;10.980;2023-05-18T11:57:13;5.37;;;2.93;;
14143;SDS011;7152;48.348;10.980;2023-05-18T11:59:42;7.07;;;3.07;;
14143;SDS011;7152;48.348;10.980;2023-05-18T12:02:09;6.03;;;2.80;;
14143;SDS011;7152;48.348;10.980;2023-05-18T12:04:41;4.83;;;2.90;;
14143;SDS011;7152;48.348;10.980;2023-05-18T12:07:10;6.63;;;2.83;;
14143;SDS011;7152;48.348;10.980;2023-05-18T12:09:40;5.83;;;2.70;;
14143;SDS011;7152;48.348;10.980;2023-05-18T12:12:07;7.07;;;2.87;;
14143;SDS011;7152;48.348;10.980;2023-05-18T12:14:34;6.50;;;3.17;;
14143;SDS011;7152;48.348;10.980;2023-05-18T12:17:01;7.70;;;3.10;;
14143;SDS011;7152;48.348;10.980;2023-05-18T12:19:27;6.93;;;2.80;;
14143;SDS011;7152;48.348;10.980;2023-05-18T12:21:53;6.20;;;2.60;;
14143;SDS011;7152;48.348;10.980;2023-05-18T12:24:19;5.60;;;2.87;;
14143;SDS011;7152;48.348;10.980;2023-05-18T12:26:45;7.13;;;2.67;;
14143;SDS011;7152;48.348;10.980;2023-05-18T12:29:12;5.03;;;2.87;;
14143;SDS011;7152;48.348;10.980;2023-05-18T12:31:44;3.50;;;2.33;;
14143;SDS011;7152;48.348;10.980;2023-05-18T12:34:10;7.33;;;3.20;;
14143;SDS011;7152;48.348;10.980;2023-05-18T12:36:41;4.47;;;2.57;;
14143;SDS011;7152;48.348;10.980;2023-05-18T12:39:15;6.67;;;3.03;;
14143;SDS011;7152;48.348;10.980;2023-05-18T12:41:41;4.60;;;2.60;;
14143;SDS011;7152;48.348;10.980;2023-05-18T12:44:06;6.47;;;3.07;;
14143;SDS011;7152;48.348;10.980;2023-05-18T12:46:32;4.73;;;2.50;;
14143;SDS011;7152;48.348;10.980;2023-05-18T12:48:58;5.33;;;2.57;;
14143;SDS011;7152;48.348;10.980;2023-05-18T12:51:30;5.80;;;3.10;;
14143;SDS011;7152;48.348;10.980;2023-05-18T12:53:57;3.93;;;2.80;;
14143;SDS011;7152;48.348;10.980;2023-05-18T12:56:23;4.97;;;2.97;;
14143;SDS011;7152;48.348;10.980;2023-05-18T12:58:55;4.70;;;2.40;;
14143;SDS011;7152;48.348;10.980;2023-05-18T13:01:27;5.07;;;2.70;;
14143;SDS011;7152;48.348;10.980;2023-05-18T13:03:56;4.23;;;2.57;;
14143;SDS011;7152;48.348;10.980;2023-05-18T13:06:22;5.70;;;2.83;;
14143;SDS011;7152;48.348;10.980;2023-05-18T13:08:51;5.97;;;2.87;;
14143;SDS011;7152;48.348;10.980;2023-05-18T13:11:22;6.10;;;2.50;;
14143;SDS011;7152;48.348;10.980;2023-05-18T13:13:56;5.43;;;2.50;;
14143;SDS011;7152;48.348;10.980;2023-05-18T13:16:22;5.77;;;2.57;;
14143;SDS011;7152;48.348;10.980;2023-05-18T13:18:54;5.67;;;2.70;;
14143;SDS011;7152;48.348;10.980;2023-05-18T13:21:20;4.00;;;2.63;;
14143;SDS011;7152;48.348;10.980;2023-05-18T13:23:46;3.67;;;2.87;;
14143;SDS011;7152;48.348;10.980;2023-05-18T13:26:12;4.27;;;2.53;;
14143;SDS011;7152;48.348;10.980;2023-05-18T13:28:38;5.17;;;3.57;;
14143;SDS011;7152;48.348;10.980;2023-05-18T13:31:03;3.87;;;2.80;;
14143;SDS011;7152;48.348;10.980;2023-05-18T13:33:29;3.63;;;2.60;;
14143;SDS011;7152;48.348;10.980;2023-05-18T13:35:55;5.03;;;2.80;;
14143;SDS011;7152;48.348;10.980;2023-05-18T13:38:20;4.90;;;2.43;;
14143;SDS011;7152;48.348;10.980;2023-05-18T13:40:46;4.13;;;2.80;;
14143;SDS011;7152;48.348;10.980;2023-05-18T13:43:12;6.20;;;2.97;;
14143;SDS011;7152;48.348;10.980;2023-05-18T13:45:37;4.87;;;2.67;;
14143;SDS011;7152;48.348;10.980;2023-05-18T13:48:03;4.60;;;2.80;;
14143;SDS011;7152;48.348;10.980;2023-05-18T13:50:31;5.07;;;2.67;;
14143;SDS011;7152;48.348;10.980;2023-05-18T13:52:57;5.13;;;2.80;;
14143;SDS011;7152;48.348;10.980;2023-05-18T13:55:22;5.97;;;2.90;;
14143;SDS011;7152;48.348;10.980;2023-05-18T13:57:48;5.33;;;2.40;;
14143;SDS011;7152;48.348;10.980;2023-05-18T14:00:14;4.17;;;2.87;;
14143;SDS011;7152;48.348;10.980;2023-05-18T14:02:41;4.30;;;2.87;;
14143;SDS011;7152;48.348;10.980;2023-05-18T14:05:08;5.17;;;2.40;;
14143;SDS011;7152;48.348;10.980;2023-05-18T14:07:38;4.87;;;2.57;;
14143;SDS011;7152;48.348;10.980;2023-05-18T14:10:06;6.33;;;2.83;;
14143;SDS011;7152;48.348;10.980;2023-05-18T14:12:33;3.70;;;2.20;;
14143;SDS011;7152;48.348;10.980;2023-05-18T14:14:59;5.33;;;2.33;;
14143;SDS011;7152;48.348;10.980;2023-05-18T14:17:25;5.87;;;2.53;;
14143;SDS011;7152;48.348;10.980;2023-05-18T14:19:56;4.17;;;2.50;;
14143;SDS011;7152;48.348;10.980;2023-05-18T14:22:23;4.17;;;2.40;;
14143;SDS011;7152;48.348;10.980;2023-05-18T14:24:50;4.80;;;2.80;;
14143;SDS011;7152;48.348;10.980;2023-05-18T14:27:16;5.53;;;2.77;;
14143;SDS011;7152;48.348;10.980;2023-05-18T14:29:44;6.60;;;2.77;;
14143;SDS011;7152;48.348;10.980;2023-05-18T14:32:10;5.20;;;2.77;;
14143;SDS011;7152;48.348;10.980;2023-05-18T14:34:35;4.93;;;2.20;;
14143;SDS011;7152;48.348;10.980;2023-05-18T14:37:01;4.83;;;2.40;;
14143;SDS011;7152;48.348;10.980;2023-05-18T14:39:27;5.40;;;2.87;;
14143;SDS011;7152;48.348;10.980;2023-05-18T14:41:53;4.67;;;2.70;;
14143;SDS011;7152;48.348;10.980;2023-05-18T14:44:18;6.03;;;2.70;;
14143;SDS011;7152;48.348;10.980;2023-05-18T14:46:44;6.17;;;2.60;;
14143;SDS011;7152;48.348;10.980;2023-05-18T14:49:09;2.50;;;2.10;;
14143;SDS011;7152;48.348;10.980;2023-05-18T14:51:35;8.27;;;2.80;;
14143;SDS011;7152;48.348;10.980;2023-05-18T14:54:01;4.93;;;2.57;;
14143;SDS011;7152;48.348;10.980;2023-05-18T14:56:27;6.10;;;2.70;;
14143;SDS011;7152;48.348;10.980;2023-05-18T14:58:52;5.00;;;2.73;;
14143;SDS011;7152;48.348;10.980;2023-05-18T15:01:18;3.63;;;2.60;;
14143;SDS011;7152;48.348;10.980;2023-05-18T15:03:44;5.27;;;2.67;;
14143;SDS011;7152;48.348;10.980;2023-05-18T15:06:10;6.13;;;2.90;;
14143;SDS011;7152;48.348;10.980;2023-05-18T15:08:35;6.53;;;2.90;;
14143;SDS011;7152;48.348;10.980;2023-05-18T15:11:01;5.57;;;2.60;;
14143;SDS011;7152;48.348;10.980;2023-05-18T15:13:27;6.70;;;2.60;;
14143;SDS011;7152;48.348;10.980;2023-05-18T15:15:52;4.27;;;2.50;;
14143;SDS011;7152;48.348;10.980;2023-05-18T15:18:18;5.80;;;2.77;;